Time;durP1;ratioP1;P1;durP2;ratioP2;P2;SDS_P1;SDS_P2;PMS_P1;PMS_P2;Temp;Humidity;BMP_temperature;BMP_pressure;BME280_temperature;BME280_humidity;BME280_pressure;Samples;Min_cycle;Max_cycle;Signal;HPM_P1;HPM_P2
2021/05/11 18:00:34;;;;;;;8.55;4.40;;;;;;;;;;5098800;27;20352;-78
2021/05/11 18:03:04;;;;;;;8.68;4.43;;;;;;;;;;5054942;28;20029;-79
2021/05/11 18:05:31;;;;;;;9.30;4.43;;;;;;;;;;5095769;28;20032;-78
2021/05/11 18:08:02;;;;;;;9.32;4.70;;;;;;;;;;5075493;28;20048;-79
2021/05/11 18:10:30;;;;;;;9.02;4.40;;;;;;;;;;5086260;28;20091;-78
2021/05/11 18:12:58;;;;;;;10.48;4.60;;;;;;;;;;5084738;28;20052;-78
2021/05/11 18:15:26;;;;;;;9.55;4.30;;;;;;;;;;5047589;28;20044;-78
2021/05/11 18:17:53;;;;;;;8.88;4.68;;;;;;;;;;5086092;28;20465;-78
2021/05/11 18:20:21;;;;;;;9.40;4.57;;;;;;;;;;5080842;28;20033;-78
2021/05/11 18:22:49;;;;;;;8.93;4.18;;;;;;;;;;5067100;28;20044;-78
2021/05/11 18:25:18;;;;;;;9.15;4.20;;;;;;;;;;5073660;28;20039;-78
2021/05/11 18:27:46;;;;;;;8.85;4.38;;;;;;;;;;5067955;28;20099;-78
2021/05/11 18:30:17;;;;;;;9.18;4.40;;;;;;;;;;5086324;28;20044;-78
2021/05/11 18:32:46;;;;;;;9.70;4.35;;;;;;;;;;5088139;28;20040;-78
2021/05/11 18:35:14;;;;;;;7.85;3.97;;;;;;;;;;5089404;28;20050;-78
2021/05/11 18:38:19;;;;;;;9.93;4.13;;;;;;;;;;5087722;28;20098;-78
2021/05/11 18:40:30;;;;;;;9.15;4.43;;;;;;;;;;5087551;28;20481;-78
2021/05/11 18:43:00;;;;;;;7.93;4.13;;;;;;;;;;5085932;28;20044;-78
2021/05/11 18:45:43;;;;;;;8.98;4.00;;;;;;;;;;5087839;28;20123;-78
2021/05/11 18:48:11;;;;;;;8.65;4.10;;;;;;;;;;5072085;28;20072;-78
2021/05/11 18:50:39;;;;;;;7.55;3.80;;;;;;;;;;5074429;28;20041;-78
2021/05/11 18:53:07;;;;;;;7.22;3.63;;;;;;;;;;5074616;28;20070;-78
2021/05/11 18:55:36;;;;;;;8.55;3.95;;;;;;;;;;5075467;28;20375;-78
2021/05/11 18:58:04;;;;;;;8.10;3.85;;;;;;;;;;5066036;28;20131;-78
2021/05/11 19:00:32;;;;;;;7.22;3.50;;;;;;;;;;5078288;28;20102;-79
2021/05/11 19:02:59;;;;;;;8.82;3.50;;;;;;;;;;5087679;28;20032;-79
2021/05/11 19:05:27;;;;;;;8.52;3.70;;;;;;;;;;5088614;28;20041;-79
2021/05/11 19:07:55;;;;;;;8.52;3.58;;;;;;;;;;5068476;28;20028;-79
2021/05/11 19:10:23;;;;;;;7.13;3.63;;;;;;;;;;5071420;28;20078;-79
2021/05/11 19:12:52;;;;;;;8.13;3.85;;;;;;;;;;5073731;28;20075;-78
2021/05/11 19:15:19;;;;;;;7.75;3.65;;;;;;;;;;5052294;28;20067;-79
2021/05/11 19:17:47;;;;;;;7.32;3.60;;;;;;;;;;5069213;28;20041;-79
2021/05/11 19:20:16;;;;;;;6.90;3.40;;;;;;;;;;5068062;28;20037;-79
2021/05/11 19:22:46;;;;;;;8.10;3.70;;;;;;;;;;5064656;28;20061;-79
2021/05/11 19:25:14;;;;;;;7.47;3.42;;;;;;;;;;5071150;28;20032;-79
2021/05/11 19:27:41;;;;;;;7.93;3.50;;;;;;;;;;5061987;28;20075;-78
2021/05/11 19:30:11;;;;;;;8.52;3.50;;;;;;;;;;5070069;28;20505;-79
2021/05/11 19:32:39;;;;;;;6.18;3.00;;;;;;;;;;5072277;28;20555;-78
2021/05/11 19:35:08;;;;;;;8.13;3.53;;;;;;;;;;5039426;28;20053;-79
2021/05/11 19:37:36;;;;;;;6.82;3.40;;;;;;;;;;5075361;28;20052;-79
2021/05/11 19:40:05;;;;;;;7.38;3.40;;;;;;;;;;5074592;28;20086;-78
2021/05/11 19:42:34;;;;;;;6.82;2.97;;;;;;;;;;5054826;28;20111;-79
2021/05/11 19:45:03;;;;;;;7.30;3.20;;;;;;;;;;5065031;28;20052;-79
2021/05/11 19:47:31;;;;;;;7.25;3.42;;;;;;;;;;5075554;28;20090;-79
2021/05/11 19:50:00;;;;;;;7.65;3.25;;;;;;;;;;5075649;28;20097;-79
2021/05/11 19:52:28;;;;;;;7.07;3.10;;;;;;;;;;5075142;28;20048;-78
2021/05/11 19:54:55;;;;;;;7.10;3.10;;;;;;;;;;5074633;28;20469;-79
2021/05/11 19:57:23;;;;;;;6.97;3.22;;;;;;;;;;5056367;28;20048;-79
2021/05/11 19:59:51;;;;;;;6.85;3.20;;;;;;;;;;5058559;28;20070;-79
2021/05/11 20:02:19;;;;;;;7.65;3.30;;;;;;;;;;5072704;28;20045;-78
2021/05/11 20:04:46;;;;;;;6.28;3.00;;;;;;;;;;5075138;28;20578;-79
2021/05/11 20:07:15;;;;;;;6.93;3.03;;;;;;;;;;5053478;28;20029;-79
2021/05/11 20:09:43;;;;;;;6.88;3.17;;;;;;;;;;5051831;28;20124;-78
2021/05/11 20:12:12;;;;;;;7.07;3.10;;;;;;;;;;5073933;28;20046;-79
2021/05/11 20:14:40;;;;;;;6.30;3.00;;;;;;;;;;5070023;28;20079;-78
2021/05/11 20:17:09;;;;;;;6.38;2.85;;;;;;;;;;5066693;28;20069;-78
2021/05/11 20:19:36;;;;;;;6.35;3.00;;;;;;;;;;5046869;28;20048;-79
2021/05/11 20:22:04;;;;;;;6.32;3.08;;;;;;;;;;5041304;28;20066;-78
2021/05/11 20:24:34;;;;;;;7.50;3.10;;;;;;;;;;5059824;28;20119;-79
2021/05/11 20:27:01;;;;;;;5.88;2.85;;;;;;;;;;5051583;28;20037;-79
2021/05/11 20:29:29;;;;;;;6.82;2.90;;;;;;;;;;5046277;28;20068;-79
2021/05/11 20:31:57;;;;;;;6.57;2.83;;;;;;;;;;5055588;28;20075;-79
2021/05/11 20:34:25;;;;;;;5.80;2.60;;;;;;;;;;5073455;28;20056;-79
2021/05/11 20:36:52;;;;;;;6.40;2.97;;;;;;;;;;5038936;28;20493;-79
2021/05/11 20:39:21;;;;;;;6.10;2.70;;;;;;;;;;5072930;28;20127;-78
2021/05/11 20:41:50;;;;;;;6.30;2.80;;;;;;;;;;5055386;28;20120;-79
2021/05/11 20:44:18;;;;;;;5.82;2.60;;;;;;;;;;5041464;28;20649;-78
2021/05/11 20:46:46;;;;;;;6.43;2.70;;;;;;;;;;5061974;28;20040;-79
2021/05/11 20:49:15;;;;;;;6.20;2.80;;;;;;;;;;5052930;28;20059;-79
2021/05/11 20:51:42;;;;;;;6.40;2.80;;;;;;;;;;5038708;28;20401;-79
2021/05/11 20:54:10;;;;;;;6.13;2.85;;;;;;;;;;5071403;28;20049;-79
2021/05/11 20:56:38;;;;;;;6.50;2.50;;;;;;;;;;5071332;28;20048;-79
2021/05/11 20:59:06;;;;;;;6.00;2.63;;;;;;;;;;5071411;28;20119;-79
2021/05/11 21:01:34;;;;;;;6.07;2.53;;;;;;;;;;5071366;28;20067;-79
2021/05/11 21:04:01;;;;;;;7.25;2.90;;;;;;;;;;5071788;28;20123;-79
2021/05/11 21:06:29;;;;;;;6.90;2.50;;;;;;;;;;5058234;28;20045;-79
2021/05/11 21:08:58;;;;;;;6.40;2.60;;;;;;;;;;5064366;28;20044;-79
2021/05/11 21:11:26;;;;;;;6.47;2.60;;;;;;;;;;5069494;28;20040;-78
2021/05/11 21:13:54;;;;;;;5.22;2.50;;;;;;;;;;5072599;28;20047;-79
2021/05/11 21:16:22;;;;;;;6.18;2.70;;;;;;;;;;5068835;28;20072;-79
2021/05/11 21:18:49;;;;;;;6.30;2.50;;;;;;;;;;5048244;28;20037;-79
2021/05/11 21:21:17;;;;;;;6.25;2.63;;;;;;;;;;5054039;28;20121;-79
2021/05/11 21:23:46;;;;;;;5.43;2.40;;;;;;;;;;5047072;28;20049;-78
2021/05/11 21:26:14;;;;;;;6.20;2.53;;;;;;;;;;5047791;28;20094;-79
2021/05/11 21:28:42;;;;;;;6.47;2.60;;;;;;;;;;5036954;28;20068;-79
2021/05/11 21:31:10;;;;;;;5.45;2.45;;;;;;;;;;5046122;28;20131;-79
2021/05/11 21:33:37;;;;;;;5.43;2.45;;;;;;;;;;5071009;28;20036;-79
2021/05/11 21:36:05;;;;;;;4.95;2.28;;;;;;;;;;5060510;28;20040;-78
2021/05/11 21:38:33;;;;;;;5.22;2.40;;;;;;;;;;5069105;28;20504;-79
2021/05/11 21:41:01;;;;;;;6.72;2.50;;;;;;;;;;5054147;28;20501;-79
2021/05/11 21:43:30;;;;;;;7.32;2.67;;;;;;;;;;5054392;28;20058;-79
2021/05/11 21:45:58;;;;;;;5.82;2.40;;;;;;;;;;5037728;28;20040;-78
2021/05/11 21:48:26;;;;;;;6.57;2.60;;;;;;;;;;5070752;28;20510;-79
2021/05/11 21:50:54;;;;;;;5.70;2.40;;;;;;;;;;5070725;28;20114;-78
2021/05/11 21:53:21;;;;;;;4.80;2.33;;;;;;;;;;5070819;28;20052;-79
2021/05/11 21:55:49;;;;;;;5.88;2.50;;;;;;;;;;5070536;28;20068;-79
2021/05/11 21:58:17;;;;;;;5.50;2.45;;;;;;;;;;5071517;28;20040;-79
2021/05/11 22:00:45;;;;;;;4.82;2.13;;;;;;;;;;5074065;28;20060;-78
2021/05/11 22:03:13;;;;;;;6.28;2.60;;;;;;;;;;5073847;28;20480;-78
2021/05/11 22:05:41;;;;;;;6.05;2.70;;;;;;;;;;5074802;28;20477;-78
2021/05/11 22:08:17;;;;;;;5.78;2.60;;;;;;;;;;5067354;28;20060;-78
2021/05/11 22:10:45;;;;;;;5.20;2.42;;;;;;;;;;5054412;28;20501;-78
2021/05/11 22:13:15;;;;;;;5.15;2.17;;;;;;;;;;5089374;28;20086;-79
2021/05/11 22:15:44;;;;;;;5.78;2.50;;;;;;;;;;5056776;28;20066;-79
2021/05/11 22:18:12;;;;;;;5.03;2.22;;;;;;;;;;5040634;28;20070;-79
2021/05/11 22:20:40;;;;;;;5.05;2.30;;;;;;;;;;5045519;28;20507;-79
2021/05/11 22:27:36;;;;;;;6.35;2.22;;;;;;;;;;5082062;28;20044;-78
2021/05/11 22:30:04;;;;;;;5.68;2.28;;;;;;;;;;5038325;28;20055;-78
2021/05/11 22:32:32;;;;;;;5.30;2.20;;;;;;;;;;5091724;28;20068;-78
2021/05/11 22:35:00;;;;;;;5.13;2.35;;;;;;;;;;5057019;28;20044;-78
2021/05/11 22:37:27;;;;;;;6.28;2.50;;;;;;;;;;5073374;28;20044;-78
2021/05/11 22:39:55;;;;;;;4.13;2.13;;;;;;;;;;5073729;28;20036;-79
2021/05/11 22:42:23;;;;;;;6.57;2.40;;;;;;;;;;5038853;28;20036;-79
2021/05/11 22:44:50;;;;;;;5.90;2.10;;;;;;;;;;5056598;28;20039;-78
2021/05/11 22:47:18;;;;;;;5.40;2.30;;;;;;;;;;5080807;28;20048;-79
2021/05/11 22:49:46;;;;;;;5.57;2.25;;;;;;;;;;5077769;28;20398;-79
2021/05/11 22:52:14;;;;;;;6.13;2.10;;;;;;;;;;5077271;28;20767;-78
2021/05/11 22:54:43;;;;;;;4.65;2.08;;;;;;;;;;5076967;28;20043;-78
2021/05/11 22:57:11;;;;;;;4.38;1.98;;;;;;;;;;5047667;28;20043;-78
2021/05/11 22:59:39;;;;;;;4.95;2.05;;;;;;;;;;5076707;28;20067;-78
2021/05/11 23:02:06;;;;;;;5.13;2.10;;;;;;;;;;5078057;28;20064;-79
2021/05/11 23:04:34;;;;;;;5.22;2.17;;;;;;;;;;5041197;28;20052;-78
2021/05/11 23:07:02;;;;;;;4.57;2.10;;;;;;;;;;5075811;28;20638;-78
2021/05/11 23:09:29;;;;;;;4.70;1.98;;;;;;;;;;5057518;28;20049;-79
2021/05/11 23:11:57;;;;;;;5.53;1.98;;;;;;;;;;5074911;28;20045;-78
2021/05/11 23:14:29;;;;;;;4.90;2.20;;;;;;;;;;5059125;28;20043;-79
2021/05/11 23:17:01;;;;;;;4.90;2.13;;;;;;;;;;5059178;28;20036;-78
2021/05/11 23:19:28;;;;;;;4.97;2.00;;;;;;;;;;5058546;28;20044;-78
2021/05/11 23:21:56;;;;;;;4.63;2.08;;;;;;;;;;5075975;28;20075;-79
2021/05/11 23:24:25;;;;;;;4.65;2.00;;;;;;;;;;5058761;28;20040;-78
2021/05/11 23:26:53;;;;;;;4.82;2.10;;;;;;;;;;5076815;28;20040;-79
2021/05/11 23:29:22;;;;;;;3.78;1.90;;;;;;;;;;5035052;28;20094;-78
2021/05/11 23:31:49;;;;;;;4.43;2.05;;;;;;;;;;5080377;28;20064;-79
2021/05/11 23:34:17;;;;;;;4.32;1.90;;;;;;;;;;5024536;28;20045;-78
2021/05/11 23:36:45;;;;;;;4.03;1.90;;;;;;;;;;5057049;28;20041;-79
2021/05/11 23:39:12;;;;;;;5.35;1.90;;;;;;;;;;5059123;28;20048;-79
2021/05/11 23:41:41;;;;;;;5.40;1.90;;;;;;;;;;5051453;28;20052;-79
2021/05/11 23:44:09;;;;;;;6.15;2.15;;;;;;;;;;5077010;28;20079;-78
2021/05/11 23:46:37;;;;;;;4.03;1.90;;;;;;;;;;5043581;28;20112;-78
2021/05/11 23:49:04;;;;;;;4.60;2.00;;;;;;;;;;5076793;28;20036;-79
2021/05/11 23:51:32;;;;;;;4.72;2.00;;;;;;;;;;5076795;28;20123;-78
2021/05/11 23:54:00;;;;;;;4.78;1.80;;;;;;;;;;5094909;28;20044;-79
2021/05/11 23:56:27;;;;;;;3.67;1.80;;;;;;;;;;5075204;28;20059;-78
2021/05/11 23:58:54;;;;;;;4.22;1.80;;;;;;;;;;5059049;28;20048;-78
